Terminal Aerodrome Forecast
Issued by NWS Louisville, KY

Home | Current Version | Previous Version | Text Only | Print | Product List | Glossary On
Versions: 1 2 3 4 5 6 7 8 9 10 11 12 13 14 15 16 17 18 19 20 21 22 23 24 25
000
FTUS43 KLMK 041500 AAA
TAFSDF
TAF AMD
KSDF 041500Z 0415/0518 36009KT 4SM -RA BR SCT007 OVC030
      TEMPO 0415/0418 2SM -RA BR BKN007 OVC030
     FM041900 35007KT 2SM -RAPL BR BKN007
     FM042100 36009KT 1SM -SNPL BR BKN008
     FM042200 36010KT 1SM -SN BR BKN008
     FM051000 36009KT 2SM -SN BR BKN010=

USA.gov is the U.S. government's official web portal to all federal, state and local government web resources and services.